createdAt,value
2018-02-14T00:00:15.427Z,6.27
2018-02-14T00:02:41.620Z,5.93
2018-02-14T00:05:07.789Z,5.23
2018-02-14T00:07:33.951Z,5.83
2018-02-14T00:10:00.111Z,5.50
2018-02-14T00:12:26.347Z,5.77
2018-02-14T00:14:52.546Z,5.50
2018-02-14T00:17:18.710Z,6.10
2018-02-14T00:19:44.956Z,5.37
2018-02-14T00:22:11.186Z,6.43
2018-02-14T00:24:37.352Z,6.30
2018-02-14T00:27:03.484Z,8.43
2018-02-14T00:29:29.656Z,5.23
2018-02-14T00:31:55.851Z,5.23
2018-02-14T00:34:21.994Z,5.70
2018-02-14T00:36:48.157Z,5.20
2018-02-14T00:39:14.361Z,5.67
2018-02-14T00:41:40.561Z,6.20
2018-02-14T00:44:06.819Z,5.63
2018-02-14T00:46:33.930Z,5.63
2018-02-14T00:49:00.101Z,5.30
2018-02-14T00:51:26.330Z,5.10
2018-02-14T00:53:52.481Z,5.00
2018-02-14T00:56:18.650Z,4.73
2018-02-14T00:58:44.875Z,5.30
2018-02-14T01:01:11.071Z,5.03
2018-02-14T01:03:37.241Z,7.87
2018-02-14T01:06:03.445Z,5.37
2018-02-14T01:08:29.563Z,5.47
2018-02-14T01:10:55.775Z,5.30
2018-02-14T01:13:21.979Z,5.03
2018-02-14T01:15:48.178Z,5.07
2018-02-14T01:18:14.312Z,5.13
2018-02-14T01:20:43.503Z,5.00
2018-02-14T01:23:09.727Z,5.03
2018-02-14T01:25:35.963Z,4.67
2018-02-14T01:28:02.120Z,5.00
2018-02-14T01:30:28.269Z,4.40
2018-02-14T01:32:54.492Z,4.33
2018-02-14T01:35:20.642Z,4.40
2018-02-14T01:37:46.792Z,5.07
2018-02-14T01:40:13.005Z,5.13
2018-02-14T01:42:39.252Z,4.43
2018-02-14T01:45:05.437Z,5.33
2018-02-14T01:47:31.632Z,4.10
2018-02-14T01:49:57.805Z,4.97
2018-02-14T01:52:23.979Z,5.93
2018-02-14T01:54:50.173Z,5.33
2018-02-14T01:57:16.343Z,4.70
2018-02-14T01:59:42.472Z,5.27
2018-02-14T02:02:08.692Z,4.77
2018-02-14T02:04:34.868Z,4.83
2018-02-14T02:07:01.045Z,4.87
2018-02-14T02:09:27.260Z,4.93
2018-02-14T02:11:53.562Z,4.47
2018-02-14T02:14:19.752Z,6.23
2018-02-14T02:16:45.978Z,5.60
2018-02-14T02:19:13.065Z,5.57
2018-02-14T02:21:39.283Z,7.33
2018-02-14T02:24:05.488Z,5.93
2018-02-14T02:26:31.664Z,6.23
2018-02-14T02:28:57.815Z,5.93
2018-02-14T02:31:24.045Z,6.17
2018-02-14T02:33:50.180Z,5.93
2018-02-14T02:36:16.339Z,5.33
2018-02-14T02:38:42.545Z,5.77
2018-02-14T02:41:08.756Z,6.37
2018-02-14T02:43:34.952Z,6.23
2018-02-14T02:46:01.199Z,6.93
2018-02-14T02:48:27.433Z,5.83
2018-02-14T02:50:53.645Z,6.33
2018-02-14T02:53:20.861Z,6.50
2018-02-14T02:55:47.052Z,5.60
2018-02-14T02:58:13.243Z,9.10
2018-02-14T03:00:39.457Z,7.70
2018-02-14T03:03:05.879Z,5.40
2018-02-14T03:05:32.087Z,5.73
2018-02-14T03:07:58.236Z,5.40
2018-02-14T03:10:24.388Z,5.50
2018-02-14T03:12:50.641Z,7.03
2018-02-14T03:15:16.791Z,7.13
2018-02-14T03:17:42.886Z,8.03
2018-02-14T03:20:09.016Z,7.03
2018-02-14T03:22:35.182Z,6.20
2018-02-14T03:25:01.273Z,7.23
2018-02-14T03:27:27.383Z,5.83
2018-02-14T03:29:53.566Z,5.90
2018-02-14T03:32:19.714Z,6.63
2018-02-14T03:34:45.887Z,9.70
2018-02-14T03:37:12.055Z,6.50
2018-02-14T03:39:38.605Z,6.87
2018-02-14T03:42:04.778Z,6.10
2018-02-14T03:44:30.898Z,6.13
2018-02-14T03:46:57.033Z,6.20
2018-02-14T03:49:23.183Z,6.30
2018-02-14T03:51:49.356Z,6.30
2018-02-14T03:54:15.513Z,6.93
2018-02-14T03:56:41.697Z,6.67
2018-02-14T03:59:07.875Z,7.20
2018-02-14T04:01:34.032Z,6.83
2018-02-14T04:04:00.219Z,8.43
2018-02-14T04:06:26.440Z,7.77
2018-02-14T04:08:52.612Z,7.53
2018-02-14T04:11:18.780Z,10.93
2018-02-14T04:13:44.887Z,7.73
2018-02-14T04:16:10.971Z,5.90
2018-02-14T04:18:37.123Z,7.10
2018-02-14T04:21:03.245Z,6.63
2018-02-14T04:23:29.440Z,6.90
2018-02-14T04:25:55.550Z,6.97
2018-02-14T04:28:22.687Z,7.17
2018-02-14T04:30:48.882Z,6.73
2018-02-14T04:33:15.062Z,7.10
2018-02-14T04:35:41.172Z,7.63
2018-02-14T04:38:07.305Z,6.77
2018-02-14T04:40:33.444Z,7.50
2018-02-14T04:42:59.588Z,6.93
2018-02-14T04:45:25.700Z,6.93
2018-02-14T04:47:51.833Z,9.63
2018-02-14T04:50:17.990Z,6.93
2018-02-14T04:52:44.161Z,7.00
2018-02-14T04:55:10.306Z,7.13
2018-02-14T04:57:36.407Z,7.77
2018-02-14T05:00:02.608Z,8.50
2018-02-14T05:02:29.090Z,8.07
2018-02-14T05:04:55.206Z,9.43
2018-02-14T05:07:21.313Z,8.07
2018-02-14T05:09:47.452Z,5.93
2018-02-14T05:12:13.624Z,7.03
2018-02-14T05:14:39.718Z,6.23
2018-02-14T05:17:05.880Z,6.50
2018-02-14T05:19:31.985Z,6.70
2018-02-14T05:21:58.148Z,7.03
2018-02-14T05:24:24.280Z,10.87
2018-02-14T05:26:50.380Z,7.17
2018-02-14T05:29:16.535Z,6.53
2018-02-14T05:31:42.679Z,6.17
2018-02-14T05:34:08.785Z,6.97
2018-02-14T05:36:34.910Z,7.10
2018-02-14T05:39:01.064Z,6.87
2018-02-14T05:41:27.178Z,8.27
2018-02-14T05:43:53.338Z,8.80
2018-02-14T05:46:19.463Z,8.10
2018-02-14T05:48:45.586Z,8.27
2018-02-14T05:51:11.745Z,7.23
2018-02-14T05:53:37.924Z,7.63
2018-02-14T05:56:04.042Z,7.97
2018-02-14T05:58:30.242Z,8.87
2018-02-14T06:00:56.324Z,12.03
2018-02-14T06:03:22.533Z,7.93
2018-02-14T06:05:48.669Z,7.60
2018-02-14T06:08:14.781Z,8.27
2018-02-14T06:10:40.874Z,8.43
2018-02-14T06:13:07.035Z,9.27
2018-02-14T06:15:33.128Z,8.70
2018-02-14T06:17:59.231Z,8.10
2018-02-14T06:20:25.378Z,7.73
2018-02-14T06:22:51.518Z,7.53
2018-02-14T06:25:17.642Z,7.37
2018-02-14T06:27:43.752Z,9.40
2018-02-14T06:30:09.944Z,9.10
2018-02-14T06:32:36.094Z,8.73
2018-02-14T06:35:02.192Z,8.67
2018-02-14T06:37:28.333Z,13.30
2018-02-14T06:39:54.448Z,8.17
2018-02-14T06:42:21.377Z,7.70
2018-02-14T06:44:47.478Z,8.57
2018-02-14T06:47:13.619Z,8.50
2018-02-14T06:49:39.744Z,8.67
2018-02-14T06:52:05.897Z,7.83
2018-02-14T06:54:32.015Z,8.30
2018-02-14T06:56:58.145Z,8.43
2018-02-14T06:59:24.312Z,8.20
2018-02-14T07:01:50.419Z,7.50
2018-02-14T07:04:16.566Z,8.30
2018-02-14T07:06:42.730Z,8.17
2018-02-14T07:09:08.878Z,7.70
2018-02-14T07:11:34.979Z,7.07
2018-02-14T07:14:01.129Z,10.90
2018-02-14T07:16:27.408Z,8.47
2018-02-14T07:18:53.546Z,8.03
2018-02-14T07:21:19.678Z,8.40
2018-02-14T07:23:45.836Z,9.20
2018-02-14T07:26:11.969Z,8.03
2018-02-14T07:28:38.126Z,8.30
2018-02-14T07:31:04.303Z,8.97
2018-02-14T07:33:30.518Z,8.47
2018-02-14T07:35:56.667Z,7.37
2018-02-14T07:38:22.806Z,7.17
2018-02-14T07:40:48.990Z,7.60
2018-02-14T07:43:15.147Z,8.37
2018-02-14T07:45:41.327Z,8.70
2018-02-14T07:48:07.507Z,9.17
2018-02-14T07:50:33.680Z,14.57
2018-02-14T07:52:59.852Z,8.60
2018-02-14T07:55:25.993Z,8.33
2018-02-14T07:57:52.167Z,8.53
2018-02-14T08:00:18.305Z,8.33
2018-02-14T08:02:44.491Z,8.63
2018-02-14T08:05:10.614Z,9.37
2018-02-14T08:07:36.743Z,9.93
2018-02-14T08:10:02.906Z,8.57
2018-02-14T08:12:29.080Z,8.60
2018-02-14T08:14:55.196Z,8.30
2018-02-14T08:17:21.365Z,8.13
2018-02-14T08:19:47.545Z,8.37
2018-02-14T08:22:13.649Z,9.90
2018-02-14T08:24:39.797Z,8.77
2018-02-14T08:27:05.922Z,10.10
2018-02-14T08:29:32.092Z,8.07
2018-02-14T08:31:58.268Z,8.60
2018-02-14T08:34:24.464Z,7.43
2018-02-14T08:36:50.564Z,7.97
2018-02-14T08:39:16.689Z,8.70
2018-02-14T08:41:42.826Z,7.97
2018-02-14T08:44:08.999Z,8.10
2018-02-14T08:46:35.148Z,9.13
2018-02-14T08:49:01.351Z,8.00
2018-02-14T08:51:27.518Z,8.60
2018-02-14T08:53:53.686Z,7.93
2018-02-14T08:56:19.849Z,9.23
2018-02-14T08:58:46.004Z,9.23
2018-02-14T09:01:12.128Z,8.63
2018-02-14T09:03:38.288Z,10.93
2018-02-14T09:06:04.415Z,8.73
2018-02-14T09:08:30.538Z,7.60
2018-02-14T09:10:56.645Z,8.23
2018-02-14T09:13:22.812Z,8.17
2018-02-14T09:15:48.922Z,7.90
2018-02-14T09:18:15.041Z,8.63
2018-02-14T09:20:41.395Z,9.57
2018-02-14T09:23:07.558Z,7.80
2018-02-14T09:25:33.720Z,8.50
2018-02-14T09:27:59.883Z,8.20
2018-02-14T09:30:26.033Z,8.77
2018-02-14T09:32:52.187Z,8.50
2018-02-14T09:35:18.328Z,8.80
2018-02-14T09:37:44.516Z,8.57
2018-02-14T09:40:10.673Z,11.67
2018-02-14T09:42:36.817Z,9.67
2018-02-14T09:45:03.011Z,8.83
2018-02-14T09:47:29.167Z,8.90
2018-02-14T09:49:55.326Z,9.63
2018-02-14T09:52:21.470Z,9.47
2018-02-14T09:54:47.602Z,9.53
2018-02-14T09:57:13.759Z,9.00
2018-02-14T09:59:39.924Z,9.60
2018-02-14T10:02:06.062Z,9.33
2018-02-14T10:04:32.197Z,9.20
2018-02-14T10:06:58.421Z,8.63
2018-02-14T10:09:24.713Z,9.03
2018-02-14T10:11:50.843Z,9.93
2018-02-14T10:14:16.979Z,9.00
2018-02-14T10:16:43.137Z,9.87
2018-02-14T10:19:09.269Z,9.00
2018-02-14T10:21:35.400Z,9.23
2018-02-14T10:24:01.608Z,9.73
2018-02-14T10:26:27.717Z,9.40
2018-02-14T10:28:53.921Z,10.87
2018-02-14T10:31:20.032Z,10.77
2018-02-14T10:33:46.233Z,10.53
2018-02-14T10:36:12.363Z,10.77
2018-02-14T10:38:38.540Z,9.27
2018-02-14T10:41:04.669Z,9.60
2018-02-14T10:43:30.860Z,9.73
2018-02-14T10:45:56.979Z,9.20
2018-02-14T10:48:23.100Z,14.53
2018-02-14T10:50:49.259Z,12.33
2018-02-14T10:53:15.427Z,9.57
2018-02-14T10:55:41.552Z,9.57
2018-02-14T10:58:07.727Z,9.43
2018-02-14T11:00:39.875Z,10.63
2018-02-14T11:03:12.136Z,9.60
2018-02-14T11:05:39.405Z,10.17
2018-02-14T11:08:05.668Z,9.53
2018-02-14T11:10:31.817Z,9.87
2018-02-14T11:12:57.944Z,9.67
2018-02-14T11:15:24.085Z,10.93
2018-02-14T11:17:50.245Z,10.63
2018-02-14T11:20:16.384Z,8.87
2018-02-14T11:22:42.495Z,10.10
2018-02-14T11:25:08.695Z,8.80
2018-02-14T11:27:34.843Z,9.93
2018-02-14T11:30:01.127Z,12.80
2018-02-14T11:32:27.277Z,9.90
2018-02-14T11:34:53.701Z,11.07
2018-02-14T11:37:19.798Z,8.97
2018-02-14T11:39:45.962Z,8.90
2018-02-14T11:42:12.080Z,9.60
2018-02-14T11:44:38.265Z,9.43
2018-02-14T11:47:04.383Z,10.20
2018-02-14T11:49:30.491Z,9.63
2018-02-14T11:51:56.641Z,9.27
2018-02-14T11:54:22.819Z,8.43
2018-02-14T11:56:48.943Z,9.50
2018-02-14T11:59:15.111Z,10.13
2018-02-14T12:01:41.239Z,10.37
2018-02-14T12:04:07.388Z,9.07
2018-02-14T12:06:33.546Z,11.07
2018-02-14T12:08:59.684Z,10.57
2018-02-14T12:11:25.861Z,11.30
2018-02-14T12:13:52.058Z,10.57
2018-02-14T12:16:18.189Z,9.70
2018-02-14T12:18:44.285Z,9.23
2018-02-14T12:21:10.408Z,10.03
2018-02-14T12:23:36.545Z,9.87
2018-02-14T12:26:02.736Z,10.80
2018-02-14T12:28:28.912Z,10.87
2018-02-14T12:30:55.165Z,8.63
2018-02-14T12:33:21.394Z,9.20
2018-02-14T12:35:47.631Z,8.93
2018-02-14T12:38:13.768Z,9.83
2018-02-14T12:40:40.037Z,8.37
2018-02-14T12:43:06.310Z,10.10
2018-02-14T12:45:32.754Z,9.07
2018-02-14T12:47:58.972Z,8.10
2018-02-14T12:50:25.220Z,9.83
2018-02-14T12:52:51.472Z,9.30
2018-02-14T12:55:17.686Z,9.57
2018-02-14T12:57:43.848Z,8.10
2018-02-14T13:00:10.056Z,8.83
2018-02-14T13:02:36.496Z,8.97
2018-02-14T13:05:02.701Z,8.63
2018-02-14T13:07:28.873Z,8.03
2018-02-14T13:09:55.096Z,8.47
2018-02-14T13:12:21.385Z,8.83
2018-02-14T13:14:47.643Z,9.07
2018-02-14T13:17:13.898Z,8.73
2018-02-14T13:19:40.103Z,8.60
2018-02-14T13:22:06.285Z,8.33
2018-02-14T13:24:32.534Z,8.17
2018-02-14T13:26:58.743Z,8.10
2018-02-14T13:29:24.980Z,8.10
2018-02-14T13:31:51.122Z,8.50
2018-02-14T13:34:17.330Z,8.27
2018-02-14T13:36:43.490Z,6.83
2018-02-14T13:39:09.670Z,8.37
2018-02-14T13:41:35.976Z,7.97
2018-02-14T13:44:02.222Z,8.17
2018-02-14T13:46:33.787Z,8.30
2018-02-14T13:48:59.995Z,7.20
2018-02-14T13:51:26.221Z,7.83
2018-02-14T13:53:52.417Z,7.40
2018-02-14T13:56:18.693Z,10.23
2018-02-14T13:58:44.922Z,8.83
2018-02-14T14:01:11.092Z,9.07
2018-02-14T14:03:37.321Z,8.47
2018-02-14T14:06:03.572Z,8.27
2018-02-14T14:08:29.796Z,8.13
2018-02-14T14:10:56.029Z,7.50
2018-02-14T14:13:22.213Z,8.17
2018-02-14T14:15:48.476Z,7.90
2018-02-14T14:18:15.943Z,9.83
2018-02-14T14:20:42.195Z,8.20
2018-02-14T14:23:08.411Z,8.17
2018-02-14T14:25:34.655Z,8.50
2018-02-14T14:28:00.827Z,9.33
2018-02-14T14:30:27.244Z,7.97
2018-02-14T14:32:53.392Z,11.50
2018-02-14T14:35:19.709Z,7.30
2018-02-14T14:37:45.913Z,7.40
2018-02-14T14:40:12.098Z,7.57
2018-02-14T14:42:38.571Z,7.93
2018-02-14T14:45:04.833Z,7.93
2018-02-14T14:47:31.024Z,7.73
2018-02-14T14:49:57.188Z,8.70
2018-02-14T14:52:24.286Z,8.17
2018-02-14T14:54:50.512Z,8.90
2018-02-14T14:57:16.788Z,7.83
2018-02-14T14:59:43.027Z,7.97
2018-02-14T15:02:09.176Z,7.90
2018-02-14T15:04:35.456Z,8.27
2018-02-14T15:07:01.666Z,8.57
2018-02-14T15:09:27.858Z,11.80
2018-02-14T15:11:54.105Z,8.20
2018-02-14T15:14:20.351Z,8.70
2018-02-14T15:16:46.614Z,8.33
2018-02-14T15:19:12.773Z,8.57
2018-02-14T15:21:39.021Z,7.73
2018-02-14T15:24:05.184Z,8.00
2018-02-14T15:26:31.398Z,7.27
2018-02-14T15:28:57.650Z,7.83
2018-02-14T15:31:23.824Z,7.93
2018-02-14T15:33:50.089Z,8.43
2018-02-14T15:36:16.335Z,8.30
2018-02-14T15:38:42.519Z,8.73
2018-02-14T15:41:08.673Z,7.47
2018-02-14T15:46:07.955Z,11.60
2018-02-14T15:48:34.268Z,8.83
2018-02-14T15:51:00.510Z,8.10
2018-02-14T15:53:26.677Z,9.03
2018-02-14T15:55:52.899Z,9.50
2018-02-14T15:58:19.052Z,8.70
2018-02-14T16:00:45.264Z,9.50
2018-02-14T16:03:11.503Z,8.07
2018-02-14T16:05:37.741Z,9.40
2018-02-14T16:08:04.005Z,8.63
2018-02-14T16:10:30.298Z,8.90
2018-02-14T16:12:56.526Z,9.17
2018-02-14T16:15:22.770Z,8.80
2018-02-14T16:17:48.960Z,9.43
2018-02-14T16:20:15.115Z,10.03
2018-02-14T16:22:41.326Z,12.33
2018-02-14T16:25:07.532Z,9.90
2018-02-14T16:27:33.754Z,9.27
2018-02-14T16:30:00.036Z,10.70
2018-02-14T16:32:26.200Z,9.30
2018-02-14T16:34:52.413Z,9.03
2018-02-14T16:37:18.908Z,8.67
2018-02-14T16:39:45.073Z,8.87
2018-02-14T16:42:11.266Z,10.33
2018-02-14T16:44:37.536Z,9.60
2018-02-14T16:47:03.760Z,9.17
2018-02-14T16:56:17.128Z,7.80
2018-02-14T16:58:43.361Z,9.43
2018-02-14T17:01:09.596Z,9.10
2018-02-14T17:03:35.847Z,8.77
2018-02-14T17:06:02.282Z,9.63
2018-02-14T17:08:28.451Z,7.47
2018-02-14T17:10:54.709Z,7.60
2018-02-14T17:13:21.031Z,9.50
2018-02-14T17:15:47.284Z,8.40
2018-02-14T17:18:13.510Z,9.03
2018-02-14T17:20:39.798Z,7.50
2018-02-14T17:23:05.996Z,6.57
2018-02-14T17:25:32.270Z,9.10
2018-02-14T17:27:58.436Z,8.20
2018-02-14T17:30:24.706Z,12.70
2018-02-14T17:32:50.903Z,9.73
2018-02-14T17:35:17.230Z,7.13
2018-02-14T17:37:43.480Z,9.37
2018-02-14T17:40:09.658Z,8.07
2018-02-14T17:42:35.807Z,6.93
2018-02-14T17:45:02.055Z,8.40
2018-02-14T17:47:28.237Z,7.13
2018-02-14T17:49:54.384Z,7.77
2018-02-14T17:52:20.643Z,7.53
2018-02-14T17:54:46.920Z,10.33
2018-02-14T17:57:13.174Z,11.03
2018-02-14T17:59:39.401Z,9.40
2018-02-14T18:02:05.629Z,9.30
2018-02-14T18:04:31.908Z,10.70
2018-02-14T18:06:58.122Z,9.50
2018-02-14T18:09:24.354Z,7.53
2018-02-14T18:11:50.534Z,6.47
2018-02-14T18:14:16.794Z,6.30
2018-02-14T18:16:43.018Z,6.93
2018-02-14T18:19:09.284Z,6.90
2018-02-14T18:21:35.432Z,7.80
2018-02-14T18:24:01.635Z,7.20
2018-02-14T18:26:27.838Z,8.00
2018-02-14T18:28:54.060Z,6.30
2018-02-14T18:31:20.282Z,7.43
2018-02-14T18:33:46.560Z,7.03
2018-02-14T18:36:12.740Z,6.13
2018-02-14T18:38:38.934Z,10.60
2018-02-14T18:41:05.108Z,8.10
2018-02-14T18:43:31.363Z,8.43
2018-02-14T18:45:57.581Z,6.70
2018-02-14T18:48:23.763Z,7.40
2018-02-14T18:50:49.992Z,9.40
2018-02-14T18:53:16.255Z,7.07
2018-02-14T18:55:42.491Z,7.70
2018-02-14T18:58:08.746Z,7.83
2018-02-14T19:00:34.962Z,7.67
2018-02-14T19:03:01.162Z,8.40
2018-02-14T19:05:27.381Z,7.50
2018-02-14T19:07:53.595Z,7.30
2018-02-14T19:10:19.774Z,9.27
2018-02-14T19:12:45.960Z,6.93
2018-02-14T19:15:12.194Z,9.77
2018-02-14T19:17:38.441Z,7.03
2018-02-14T19:20:04.642Z,6.33
2018-02-14T19:22:30.880Z,7.67
2018-02-14T19:24:57.057Z,7.57
2018-02-14T19:27:23.276Z,7.20
2018-02-14T19:29:49.491Z,7.00
2018-02-14T19:32:15.873Z,8.23
2018-02-14T19:34:42.178Z,8.83
2018-02-14T19:37:08.392Z,6.70
2018-02-14T19:39:34.523Z,7.67
2018-02-14T19:42:00.710Z,7.53
2018-02-14T19:44:27.958Z,6.60
2018-02-14T19:46:54.179Z,6.20
2018-02-14T19:49:20.347Z,7.33
2018-02-14T19:51:48.209Z,7.23
2018-02-14T19:54:14.529Z,6.83
2018-02-14T19:56:40.799Z,6.60
2018-02-14T19:59:07.004Z,5.90
2018-02-14T20:01:33.185Z,6.73
2018-02-14T20:03:59.404Z,6.07
2018-02-14T20:06:25.779Z,6.93
2018-02-14T20:08:51.958Z,6.10
2018-02-14T20:11:18.178Z,5.97
2018-02-14T20:13:44.385Z,6.20
2018-02-14T20:16:10.648Z,6.67
2018-02-14T20:18:36.908Z,7.03
2018-02-14T20:21:03.159Z,6.70
2018-02-14T20:23:29.400Z,7.67
2018-02-14T20:25:55.628Z,6.33
2018-02-14T20:28:21.825Z,7.63
2018-02-14T20:30:48.044Z,6.43
2018-02-14T20:33:14.249Z,6.47
2018-02-14T20:35:40.426Z,6.43
2018-02-14T20:38:06.683Z,6.07
2018-02-14T20:40:32.880Z,7.80
2018-02-14T20:42:59.076Z,5.50
2018-02-14T20:45:25.289Z,5.60
2018-02-14T20:47:51.509Z,6.33
2018-02-14T20:50:17.684Z,6.50
2018-02-14T20:52:43.979Z,6.60
2018-02-14T20:55:10.143Z,7.13
2018-02-14T20:57:36.364Z,5.67
2018-02-14T21:00:02.676Z,6.20
2018-02-14T21:02:28.862Z,4.90
2018-02-14T21:04:55.042Z,5.47
2018-02-14T21:07:21.259Z,5.83
2018-02-14T21:09:47.534Z,8.40
2018-02-14T21:12:13.701Z,7.63
2018-02-14T21:14:39.859Z,6.37
2018-02-14T21:17:06.111Z,6.40
2018-02-14T21:19:32.303Z,6.23
2018-02-14T21:21:58.529Z,6.97
2018-02-14T21:24:24.804Z,5.23
2018-02-14T21:26:50.998Z,5.90
2018-02-14T21:29:17.200Z,6.27
2018-02-14T21:31:43.424Z,5.37
2018-02-14T21:34:09.574Z,6.43
2018-02-14T21:36:35.806Z,6.33
2018-02-14T21:39:02.042Z,6.07
2018-02-14T21:41:28.202Z,7.70
2018-02-14T21:43:54.366Z,5.70
2018-02-14T21:46:20.555Z,7.53
2018-02-14T21:48:47.059Z,6.00
2018-02-14T21:51:14.094Z,6.53
2018-02-14T21:53:40.262Z,6.80
2018-02-14T21:56:06.453Z,6.63
2018-02-14T21:58:32.670Z,6.63
2018-02-14T22:00:58.876Z,7.37
2018-02-14T22:03:25.035Z,7.67
2018-02-14T22:05:52.067Z,7.47
2018-02-14T22:08:18.260Z,7.53
2018-02-14T22:10:44.447Z,7.27
2018-02-14T22:13:10.625Z,8.80
2018-02-14T22:15:36.830Z,7.63
2018-02-14T22:18:03.063Z,8.53
2018-02-14T22:20:29.243Z,9.43
2018-02-14T22:22:55.398Z,10.60
2018-02-14T22:25:21.620Z,7.60
2018-02-14T22:27:47.853Z,7.93
2018-02-14T22:30:14.097Z,8.97
2018-02-14T22:32:40.262Z,8.77
2018-02-14T22:35:06.474Z,7.97
2018-02-14T22:37:32.745Z,8.57
2018-02-14T22:39:58.919Z,8.70
2018-02-14T22:42:25.134Z,9.57
2018-02-14T22:44:51.311Z,8.83
2018-02-14T22:47:17.591Z,8.50
2018-02-14T22:49:43.765Z,8.60
2018-02-14T22:52:10.007Z,10.07
2018-02-14T22:54:36.173Z,8.93
2018-02-14T22:57:02.474Z,10.03
2018-02-14T22:59:28.681Z,10.47
2018-02-14T23:01:55.894Z,9.90
2018-02-14T23:04:22.086Z,10.33
2018-02-14T23:06:48.316Z,10.33
2018-02-14T23:09:14.502Z,10.87
2018-02-14T23:11:40.818Z,9.90
2018-02-14T23:14:07.317Z,10.07
2018-02-14T23:16:33.490Z,10.57
2018-02-14T23:18:59.713Z,10.23
2018-02-14T23:21:25.963Z,7.97
2018-02-14T23:23:52.118Z,10.40
2018-02-14T23:26:18.377Z,10.97
2018-02-14T23:28:44.609Z,11.07
2018-02-14T23:31:10.817Z,10.43
2018-02-14T23:33:36.994Z,10.10
2018-02-14T23:36:03.196Z,11.97
2018-02-14T23:38:29.405Z,9.13
2018-02-14T23:40:55.613Z,9.60
2018-02-14T23:43:21.774Z,10.50
2018-02-14T23:45:47.964Z,9.90
2018-02-14T23:48:14.150Z,9.97
2018-02-14T23:50:40.415Z,11.97
2018-02-14T23:53:06.607Z,9.03
2018-02-14T23:55:32.762Z,10.57
2018-02-14T23:57:58.941Z,10.63
